CheckWX is a tool to help pilots better visualize weather data.  It is not intended as a substitute for an official pre-flight weather briefing.

13:36:59 UTC

KUCY METAR
Everett-Stewart Regional Airport
Union City, Tennessee, USA
Current

22 mins ago

KUCY 051315Z AUTO 00000KT 4SM BR OVC003 09/09 A3011 RMK A01
Observed
Apr-5 @ 13:15 UTC
Visibility
Flight Rules
LIFR
Conditions
Mist
Cloud Levels
  • Overcast at 300' AGL
Temperature
C / 48°F
Dewpoint
C / 48°F
Humidity
100%
Altimeter
30.11" Hg
Pressure
1019.62 hPa
Previous

42 mins ago

KUCY 051255Z AUTO 03004KT 3SM BR OVC003 09/09 A3011 RMK A01
Observed
Apr-5 @ 12:55 UTC
Wind
  • 030° at 4 KTS
Visibility
Flight Rules
LIFR
Conditions
Mist
Cloud Levels
  • Overcast at 300' AGL
Temperature
C / 48°F
Dewpoint
C / 48°F
Humidity
100%
Altimeter
30.11" Hg
Pressure
1019.62 hPa
Previous

1 hour ago

KUCY 051235Z AUTO 04003KT 2 1/2SM BR OVC003 09/09 A3010 RMK A01
Observed
Apr-5 @ 12:35 UTC
Wind
  • 040° at 3 KTS
Visibility
Flight Rules
LIFR
Conditions
Mist
Cloud Levels
  • Overcast at 300' AGL
Temperature
C / 48°F
Dewpoint
C / 48°F
Humidity
100%
Altimeter
30.1" Hg
Pressure
1019.32 hPa